createdAt,value
2023-10-25T00:00:33.826Z,36.60
2023-10-25T00:01:36.321Z,36.45
2023-10-25T00:02:39.713Z,36.39
2023-10-25T00:03:42.168Z,36.57
2023-10-25T00:04:44.707Z,36.51
2023-10-25T00:05:47.269Z,36.59
2023-10-25T00:06:49.673Z,36.60
2023-10-25T00:07:51.947Z,36.41
2023-10-25T00:08:54.262Z,36.65
2023-10-25T00:09:57.613Z,36.32
2023-10-25T00:11:09.634Z,36.26
2023-10-25T00:12:11.952Z,36.52
2023-10-25T00:13:14.667Z,36.52
2023-10-25T00:14:17.345Z,36.41
2023-10-25T00:15:19.894Z,36.63
2023-10-25T00:16:22.345Z,36.52
2023-10-25T00:17:24.728Z,36.58
2023-10-25T00:18:28.259Z,36.40
2023-10-25T00:19:30.937Z,36.41
2023-10-25T00:20:33.424Z,36.38
2023-10-25T00:21:35.756Z,36.29
2023-10-25T00:22:38.336Z,36.40
2023-10-25T00:23:40.754Z,36.55
2023-10-25T00:24:43.161Z,36.61
2023-10-25T00:25:45.616Z,36.46
2023-10-25T00:26:47.971Z,36.60
2023-10-25T00:27:50.385Z,36.36
2023-10-25T00:28:53.256Z,36.40
2023-10-25T00:29:55.545Z,36.46
2023-10-25T00:30:58.192Z,36.63
2023-10-25T00:32:00.958Z,36.53
2023-10-25T00:33:04.016Z,36.41
2023-10-25T00:34:06.723Z,36.51
2023-10-25T00:35:10.131Z,36.84
2023-10-25T00:36:12.539Z,36.58
2023-10-25T00:37:15.257Z,36.63
2023-10-25T00:38:17.582Z,36.51
2023-10-25T00:39:19.989Z,36.46
2023-10-25T00:40:22.640Z,36.46
2023-10-25T00:41:25.028Z,36.36
2023-10-25T00:42:27.471Z,36.43
2023-10-25T00:43:29.820Z,36.46
2023-10-25T00:44:32.356Z,36.61
2023-10-25T00:45:35.597Z,36.55
2023-10-25T00:46:38.644Z,36.54
2023-10-25T00:47:44.408Z,36.53
2023-10-25T00:48:49.198Z,36.54
2023-10-25T00:49:52.967Z,36.56
2023-10-25T00:50:55.688Z,36.61
2023-10-25T00:51:58.139Z,36.38
2023-10-25T00:53:00.527Z,36.45
2023-10-25T00:54:03.617Z,36.55
2023-10-25T00:55:06.524Z,36.55
2023-10-25T00:56:12.060Z,36.39
2023-10-25T00:57:15.725Z,36.58
2023-10-25T00:58:18.327Z,36.63
2023-10-25T00:59:22.717Z,36.36
2023-10-25T01:00:26.664Z,36.56
2023-10-25T01:01:30.298Z,36.52
2023-10-25T01:02:32.777Z,36.46
2023-10-25T01:03:35.286Z,36.47
2023-10-25T01:04:38.203Z,36.42
2023-10-25T01:05:42.249Z,36.52
2023-10-25T01:06:44.772Z,36.58
2023-10-25T01:07:47.087Z,36.61
2023-10-25T01:08:50.213Z,36.54
2023-10-25T01:09:52.694Z,36.44
2023-10-25T01:10:55.395Z,36.58
2023-10-25T01:11:58.048Z,36.35
2023-10-25T01:13:00.928Z,36.43
2023-10-25T01:14:03.343Z,36.40
2023-10-25T01:15:06.158Z,36.44
2023-10-25T01:16:08.872Z,36.70
2023-10-25T01:17:11.722Z,36.67
2023-10-25T01:18:15.611Z,36.56
2023-10-25T01:19:18.308Z,36.41
2023-10-25T01:20:20.835Z,36.55
2023-10-25T01:21:24.028Z,36.38
2023-10-25T01:22:27.081Z,36.32
2023-10-25T01:23:29.444Z,36.42
2023-10-25T01:24:32.113Z,36.40
2023-10-25T01:25:34.799Z,36.37
2023-10-25T01:26:38.754Z,36.40
2023-10-25T01:27:41.709Z,36.57
2023-10-25T01:28:44.386Z,36.62
2023-10-25T01:29:47.042Z,36.46
2023-10-25T01:30:49.592Z,36.43
2023-10-25T01:31:51.977Z,36.37
2023-10-25T01:32:55.051Z,36.25
2023-10-25T01:33:57.416Z,36.55
2023-10-25T01:35:00.256Z,36.62
2023-10-25T01:36:02.864Z,36.42
2023-10-25T01:37:05.344Z,36.62
2023-10-25T01:38:07.718Z,36.36
2023-10-25T01:39:10.065Z,36.42
2023-10-25T01:40:13.212Z,36.48
2023-10-25T01:41:17.733Z,36.46
2023-10-25T01:42:20.356Z,36.62
2023-10-25T01:43:24.234Z,36.44
2023-10-25T01:44:26.645Z,36.55
2023-10-25T01:45:29.018Z,36.37
2023-10-25T01:46:31.928Z,36.59
2023-10-25T01:47:34.434Z,36.57
2023-10-25T01:48:38.876Z,36.61
2023-10-25T01:49:41.715Z,36.64
2023-10-25T01:50:44.322Z,36.49
2023-10-25T01:51:46.687Z,36.44
2023-10-25T01:52:49.218Z,36.61
2023-10-25T01:53:51.542Z,36.45
2023-10-25T01:54:53.944Z,36.60
2023-10-25T01:55:56.672Z,36.67
2023-10-25T01:56:59.310Z,36.49
2023-10-25T01:58:01.652Z,36.49
2023-10-25T01:59:04.065Z,36.46
2023-10-25T02:00:07.915Z,36.58
2023-10-25T02:01:10.491Z,36.40
2023-10-25T02:02:14.584Z,36.29
2023-10-25T02:03:17.317Z,36.41
2023-10-25T02:04:19.697Z,36.61
2023-10-25T02:05:22.098Z,36.41
2023-10-25T02:06:24.479Z,36.61
2023-10-25T02:07:26.841Z,36.47
2023-10-25T02:08:29.496Z,36.37
2023-10-25T02:09:32.269Z,36.49
2023-10-25T02:10:37.486Z,36.44
2023-10-25T02:11:40.137Z,36.61
2023-10-25T02:12:42.450Z,36.60
2023-10-25T02:13:45.112Z,36.62
2023-10-25T02:14:47.785Z,36.53
2023-10-25T02:15:50.205Z,36.40
2023-10-25T02:16:52.690Z,36.38
2023-10-25T02:17:56.618Z,36.55
2023-10-25T02:18:59.139Z,36.33
2023-10-25T02:20:01.787Z,36.62
2023-10-25T02:21:05.317Z,36.40
2023-10-25T02:22:07.705Z,36.44
2023-10-25T02:23:10.049Z,36.75
2023-10-25T02:24:13.456Z,36.39
2023-10-25T02:25:15.928Z,36.41
2023-10-25T02:26:18.607Z,36.63
2023-10-25T02:27:21.074Z,36.62
2023-10-25T02:28:23.476Z,36.60
2023-10-25T02:29:26.129Z,36.37
2023-10-25T02:30:28.513Z,36.62
2023-10-25T02:31:30.882Z,36.64
2023-10-25T02:32:33.659Z,36.53
2023-10-25T02:33:35.973Z,36.64
2023-10-25T02:34:38.677Z,36.45
2023-10-25T02:35:40.993Z,36.61
2023-10-25T02:36:43.668Z,36.58
2023-10-25T02:37:46.144Z,36.78
2023-10-25T02:38:49.648Z,36.72
2023-10-25T02:39:51.986Z,36.49
2023-10-25T02:40:54.828Z,36.40
2023-10-25T02:41:57.289Z,36.41
2023-10-25T02:42:59.775Z,36.63
2023-10-25T02:44:02.374Z,36.62
2023-10-25T02:45:05.374Z,36.49
2023-10-25T02:46:10.964Z,36.56
2023-10-25T02:47:13.938Z,36.58
2023-10-25T02:48:16.397Z,36.50
2023-10-25T02:49:18.947Z,36.46
2023-10-25T02:50:21.398Z,36.47
2023-10-25T02:51:23.723Z,36.54
2023-10-25T02:52:26.672Z,36.41
2023-10-25T02:53:29.025Z,36.64
2023-10-25T02:54:31.783Z,36.72
2023-10-25T02:55:35.140Z,36.47
2023-10-25T02:56:37.895Z,36.57
2023-10-25T02:57:40.282Z,36.74
2023-10-25T02:58:42.634Z,36.69
2023-10-25T02:59:45.145Z,36.68
2023-10-25T03:00:47.548Z,36.63
2023-10-25T03:01:50.059Z,36.40
2023-10-25T03:02:52.524Z,36.46
2023-10-25T03:03:55.494Z,36.41
2023-10-25T03:04:59.883Z,36.66
2023-10-25T03:06:02.289Z,36.41
2023-10-25T03:07:05.100Z,36.46
2023-10-25T03:08:07.773Z,36.64
2023-10-25T03:09:11.273Z,36.54
2023-10-25T03:10:13.727Z,36.46
2023-10-25T03:11:16.130Z,36.45
2023-10-25T03:12:18.751Z,36.59
2023-10-25T03:13:21.256Z,36.47
2023-10-25T03:14:24.124Z,36.59
2023-10-25T03:15:26.608Z,36.48
2023-10-25T03:16:29.045Z,36.47
2023-10-25T03:17:31.697Z,36.51
2023-10-25T03:18:34.963Z,36.52
2023-10-25T03:19:37.771Z,36.72
2023-10-25T03:20:40.173Z,36.49
2023-10-25T03:21:42.582Z,36.49
2023-10-25T03:22:44.890Z,36.57
2023-10-25T03:23:47.243Z,36.40
2023-10-25T03:24:49.610Z,36.46
2023-10-25T03:25:52.309Z,36.50
2023-10-25T03:26:55.667Z,36.64
2023-10-25T03:27:58.145Z,36.50
2023-10-25T03:29:00.553Z,36.45
2023-10-25T03:30:04.068Z,36.44
2023-10-25T03:31:07.454Z,36.55
2023-10-25T03:32:09.811Z,36.49
2023-10-25T03:33:12.155Z,36.39
2023-10-25T03:34:16.251Z,36.35
2023-10-25T03:35:18.964Z,36.18
2023-10-25T03:36:21.345Z,36.37
2023-10-25T03:37:23.702Z,36.16
2023-10-25T03:38:26.184Z,36.23
2023-10-25T03:39:28.834Z,36.27
2023-10-25T03:40:31.320Z,36.41
2023-10-25T03:41:33.711Z,36.26
2023-10-25T03:42:36.722Z,36.18
2023-10-25T03:43:39.321Z,36.26
2023-10-25T03:44:41.654Z,36.36
2023-10-25T03:45:44.116Z,36.41
2023-10-25T03:46:46.928Z,36.57
2023-10-25T03:47:49.631Z,36.47
2023-10-25T03:48:52.350Z,36.50
2023-10-25T03:49:54.824Z,36.50
2023-10-25T03:50:57.161Z,36.51
2023-10-25T03:51:59.597Z,36.43
2023-10-25T03:53:01.978Z,36.41
2023-10-25T03:54:04.545Z,36.41
2023-10-25T03:55:08.573Z,36.49
2023-10-25T03:56:11.048Z,36.32
2023-10-25T03:57:13.636Z,36.27
2023-10-25T03:58:16.248Z,36.38
2023-10-25T03:59:18.539Z,36.48
2023-10-25T04:00:21.126Z,36.40
2023-10-25T04:01:23.696Z,36.41
2023-10-25T04:02:26.439Z,36.14
2023-10-25T04:03:29.542Z,36.23
2023-10-25T04:04:31.957Z,36.30
2023-10-25T04:05:34.354Z,36.10
2023-10-25T04:06:37.186Z,36.38
2023-10-25T04:07:40.291Z,36.33
2023-10-25T04:08:42.565Z,36.30
2023-10-25T04:09:45.332Z,36.29
2023-10-25T04:10:55.927Z,36.34
2023-10-25T04:11:58.203Z,36.24
2023-10-25T04:13:00.488Z,36.25
2023-10-25T04:14:03.150Z,36.47
2023-10-25T04:15:06.018Z,36.31
2023-10-25T04:16:10.696Z,36.18
2023-10-25T04:17:13.837Z,36.35
2023-10-25T04:18:16.483Z,36.32
2023-10-25T04:19:19.046Z,36.32
2023-10-25T04:20:21.829Z,36.38
2023-10-25T04:21:24.170Z,36.41
2023-10-25T04:22:27.106Z,36.36
2023-10-25T04:23:32.878Z,36.15
2023-10-25T04:24:35.619Z,36.16
2023-10-25T04:25:37.899Z,36.25
2023-10-25T04:26:40.548Z,36.29
2023-10-25T04:27:42.976Z,36.44
2023-10-25T04:28:46.091Z,36.32
2023-10-25T04:29:48.436Z,36.21
2023-10-25T04:30:51.278Z,36.41
2023-10-25T04:31:53.658Z,36.27
2023-10-25T04:32:56.151Z,36.18
2023-10-25T04:34:00.756Z,36.27
2023-10-25T04:35:03.133Z,36.10
2023-10-25T04:36:07.068Z,36.17
2023-10-25T04:37:09.694Z,36.12
2023-10-25T04:38:12.138Z,36.32
2023-10-25T04:39:14.437Z,36.10
2023-10-25T04:40:16.959Z,36.33
2023-10-25T04:41:19.414Z,36.37
2023-10-25T04:42:22.142Z,36.35
2023-10-25T04:43:24.865Z,36.37
2023-10-25T04:44:28.839Z,36.24
2023-10-25T04:45:31.262Z,36.19
2023-10-25T04:46:33.766Z,36.09
2023-10-25T04:47:36.188Z,36.18
2023-10-25T04:48:38.597Z,36.25
2023-10-25T04:49:41.059Z,36.13
2023-10-25T04:50:45.146Z,36.39
2023-10-25T04:51:47.532Z,36.19
2023-10-25T04:52:50.751Z,36.35
2023-10-25T04:53:53.311Z,36.28
2023-10-25T04:54:55.988Z,36.09
2023-10-25T04:55:58.310Z,36.37
2023-10-25T04:57:00.649Z,36.24
2023-10-25T04:58:03.664Z,36.31
2023-10-25T04:59:06.563Z,36.06
2023-10-25T05:00:13.265Z,36.08
2023-10-25T05:01:16.476Z,36.14
2023-10-25T05:02:19.157Z,36.05
2023-10-25T05:03:22.706Z,36.17
2023-10-25T05:04:25.408Z,36.08
2023-10-25T05:05:27.805Z,36.09
2023-10-25T05:06:30.752Z,36.15
2023-10-25T05:07:33.575Z,36.24
2023-10-25T05:08:36.909Z,36.10
2023-10-25T05:09:39.777Z,36.20
2023-10-25T05:10:42.704Z,36.14
2023-10-25T05:11:56.250Z,35.93
2023-10-25T05:12:58.914Z,36.08
2023-10-25T05:14:01.734Z,35.92
2023-10-25T05:15:04.410Z,36.15
2023-10-25T05:16:07.304Z,35.87
2023-10-25T05:17:11.092Z,36.04
2023-10-25T05:18:13.789Z,36.19
2023-10-25T05:19:16.513Z,36.03
2023-10-25T05:20:19.486Z,36.23
2023-10-25T05:21:27.414Z,35.91
2023-10-25T05:22:30.989Z,36.01
2023-10-25T05:23:35.629Z,36.12
2023-10-25T05:24:38.329Z,36.01
2023-10-25T05:25:41.221Z,35.84
2023-10-25T05:26:44.260Z,36.19
2023-10-25T05:27:47.314Z,36.19
2023-10-25T05:28:49.834Z,36.11
2023-10-25T05:29:52.650Z,36.23
2023-10-25T05:30:58.556Z,35.95
2023-10-25T05:32:05.682Z,36.19
2023-10-25T05:33:09.879Z,36.22
2023-10-25T05:34:12.672Z,36.16
2023-10-25T05:35:15.895Z,35.96
2023-10-25T05:36:18.387Z,36.11
2023-10-25T05:37:21.155Z,36.23
2023-10-25T05:38:23.946Z,36.11
2023-10-25T05:39:26.645Z,36.04
2023-10-25T05:40:29.519Z,36.23
2023-10-25T05:41:36.794Z,35.99
2023-10-25T05:42:50.745Z,36.07
2023-10-25T05:44:06.999Z,36.15
2023-10-25T05:45:11.256Z,35.89
2023-10-25T05:46:13.921Z,35.94
2023-10-25T05:47:16.740Z,36.03
2023-10-25T05:48:19.478Z,36.09
2023-10-25T05:49:22.116Z,36.08
2023-10-25T05:50:25.013Z,36.02
2023-10-25T05:51:28.583Z,36.25
2023-10-25T05:52:31.213Z,36.05
2023-10-25T05:53:34.102Z,36.29
2023-10-25T05:54:37.989Z,36.13
2023-10-25T05:55:40.720Z,36.08
2023-10-25T05:56:43.397Z,35.96
2023-10-25T05:57:49.107Z,36.30
2023-10-25T05:58:51.690Z,36.02
2023-10-25T05:59:54.351Z,35.94
2023-10-25T06:00:57.467Z,36.07
2023-10-25T06:02:23.887Z,36.02
2023-10-25T06:03:32.119Z,36.24
2023-10-25T06:04:37.541Z,36.09
2023-10-25T06:05:40.979Z,36.23
2023-10-25T06:06:45.820Z,36.08
2023-10-25T06:07:48.488Z,36.21
2023-10-25T06:08:51.188Z,36.23
2023-10-25T06:09:54.202Z,36.01
2023-10-25T06:10:56.944Z,36.05
2023-10-25T06:11:59.896Z,36.23
2023-10-25T06:13:03.052Z,36.33
2023-10-25T06:14:06.721Z,36.10
2023-10-25T06:15:10.589Z,36.16
2023-10-25T06:16:14.633Z,36.24
2023-10-25T06:17:17.360Z,36.11
2023-10-25T06:18:20.056Z,36.20
2023-10-25T06:19:22.855Z,36.10
2023-10-25T06:20:25.189Z,36.34
2023-10-25T06:21:27.900Z,36.37
2023-10-25T06:22:30.312Z,36.22
2023-10-25T06:23:35.292Z,36.30
2023-10-25T06:24:37.615Z,36.11
2023-10-25T06:25:39.978Z,36.33
2023-10-25T06:26:43.187Z,36.27
2023-10-25T06:27:45.567Z,36.39
2023-10-25T06:28:47.867Z,36.11
2023-10-25T06:29:50.565Z,36.28
2023-10-25T06:30:53.207Z,36.33
2023-10-25T06:31:55.471Z,36.02
2023-10-25T06:33:00.711Z,36.12
2023-10-25T06:34:03.411Z,36.19
2023-10-25T06:35:06.568Z,36.30
2023-10-25T06:36:10.206Z,36.24
2023-10-25T06:37:13.136Z,36.21
2023-10-25T06:38:16.035Z,36.15
2023-10-25T06:39:18.856Z,36.33
2023-10-25T06:40:21.896Z,36.29
2023-10-25T06:41:25.122Z,36.05
2023-10-25T06:42:27.611Z,35.99
2023-10-25T06:43:31.291Z,35.90
2023-10-25T06:44:34.494Z,35.96
2023-10-25T06:45:37.152Z,36.22
2023-10-25T06:46:39.791Z,36.14
2023-10-25T06:47:45.587Z,36.17
2023-10-25T06:48:48.491Z,36.04
2023-10-25T06:49:52.297Z,35.81
2023-10-25T06:50:57.314Z,36.00
2023-10-25T06:51:59.914Z,35.98
2023-10-25T06:53:02.822Z,35.97
2023-10-25T06:54:05.590Z,36.06
2023-10-25T06:55:09.181Z,35.84
2023-10-25T06:56:12.181Z,36.03
2023-10-25T06:57:14.974Z,35.97
2023-10-25T06:58:18.159Z,36.06
2023-10-25T06:59:21.041Z,36.07
2023-10-25T07:00:23.938Z,36.05
2023-10-25T07:01:31.841Z,35.99
2023-10-25T07:02:39.361Z,36.15
2023-10-25T07:03:49.378Z,36.26
2023-10-25T07:05:06.160Z,36.14
2023-10-25T07:06:09.599Z,36.23
2023-10-25T07:07:12.786Z,36.11
2023-10-25T07:08:15.565Z,36.23
2023-10-25T07:09:18.436Z,36.38
2023-10-25T07:10:21.711Z,36.38
2023-10-25T07:11:25.326Z,36.46
2023-10-25T07:12:27.825Z,36.57
2023-10-25T07:13:31.313Z,36.59
2023-10-25T07:14:33.542Z,36.63
2023-10-25T07:15:37.388Z,36.76
2023-10-25T07:16:41.270Z,36.85
2023-10-25T07:17:46.338Z,36.86
2023-10-25T07:18:49.182Z,36.81
2023-10-25T07:19:51.950Z,36.85
2023-10-25T07:20:54.747Z,36.88
2023-10-25T07:21:57.111Z,36.71
2023-10-25T07:22:59.498Z,36.81
2023-10-25T07:24:01.954Z,36.86
2023-10-25T07:25:05.033Z,36.93
2023-10-25T07:26:08.377Z,36.89
2023-10-25T07:27:11.011Z,36.92
2023-10-25T07:28:17.724Z,36.99
2023-10-25T07:29:20.062Z,36.92
2023-10-25T07:30:22.687Z,36.83
2023-10-25T07:31:25.040Z,36.70
2023-10-25T07:32:27.886Z,36.76
2023-10-25T07:33:31.297Z,36.74
2023-10-25T07:34:33.966Z,36.93
2023-10-25T07:35:36.658Z,36.95
2023-10-25T07:36:39.048Z,36.89
2023-10-25T07:37:42.215Z,36.65
2023-10-25T07:38:44.571Z,36.73
2023-10-25T07:39:47.145Z,37.02
2023-10-25T07:40:50.864Z,36.97
2023-10-25T07:41:53.470Z,36.64
2023-10-25T07:42:55.836Z,36.63
2023-10-25T07:43:58.809Z,36.91
2023-10-25T07:45:01.138Z,36.80
2023-10-25T07:46:03.776Z,36.87
2023-10-25T07:47:06.485Z,36.64
2023-10-25T07:48:09.056Z,37.27
2023-10-25T07:49:11.713Z,36.94
2023-10-25T07:50:19.323Z,36.89
2023-10-25T07:51:21.713Z,36.77
2023-10-25T07:52:24.691Z,36.77
2023-10-25T07:53:27.352Z,36.61
2023-10-25T07:54:30.033Z,36.75
2023-10-25T07:57:09.451Z,36.40
2023-10-25T07:59:05.696Z,36.59
2023-10-25T08:00:10.973Z,36.45
2023-10-25T08:01:16.984Z,36.40
2023-10-25T08:02:19.660Z,36.47
2023-10-25T08:03:22.178Z,36.48
2023-10-25T08:04:24.856Z,36.63
2023-10-25T08:05:27.535Z,36.46
2023-10-25T08:06:30.184Z,36.48
2023-10-25T08:07:32.588Z,36.38
2023-10-25T08:08:35.043Z,36.37
2023-10-25T08:09:38.270Z,36.43
2023-10-25T08:10:40.622Z,36.24
2023-10-25T08:11:43.075Z,36.39
2023-10-25T08:12:45.516Z,36.46
2023-10-25T08:13:47.777Z,36.31
2023-10-25T08:14:51.464Z,36.24
2023-10-25T08:16:03.888Z,36.35
2023-10-25T08:17:06.665Z,35.96
2023-10-25T08:18:09.500Z,36.20
2023-10-25T08:19:11.916Z,36.40
2023-10-25T08:20:14.442Z,36.30
2023-10-25T08:21:17.673Z,36.13
2023-10-25T08:22:20.253Z,36.18
2023-10-25T08:23:22.724Z,36.14
2023-10-25T08:24:25.165Z,36.29
2023-10-25T08:25:27.732Z,36.31
2023-10-25T08:26:30.231Z,36.21
2023-10-25T08:27:32.862Z,36.28
2023-10-25T08:28:35.297Z,36.13
2023-10-25T08:29:37.657Z,36.16
2023-10-25T08:30:40.062Z,36.13
2023-10-25T08:31:43.350Z,36.32
2023-10-25T08:32:48.222Z,36.28
2023-10-25T08:33:50.697Z,36.42
2023-10-25T08:34:53.056Z,36.29
2023-10-25T08:36:05.565Z,36.35
2023-10-25T08:37:07.888Z,36.22
2023-10-25T08:38:10.579Z,36.40
2023-10-25T08:39:13.113Z,36.42
2023-10-25T08:40:16.174Z,36.26
2023-10-25T08:41:21.705Z,36.11
2023-10-25T08:42:24.325Z,36.20
2023-10-25T08:43:26.725Z,36.17
2023-10-25T08:44:29.299Z,36.01
2023-10-25T08:45:36.203Z,36.14
2023-10-25T08:46:40.609Z,36.20
2023-10-25T08:47:43.615Z,36.03
2023-10-25T08:48:46.588Z,36.49
2023-10-25T08:49:50.813Z,36.27
2023-10-25T08:50:53.505Z,35.94
2023-10-25T08:51:56.659Z,36.13
2023-10-25T08:53:01.794Z,36.16
2023-10-25T08:54:05.009Z,35.86
2023-10-25T08:55:11.171Z,36.00
2023-10-25T08:56:13.866Z,35.83
2023-10-25T08:57:19.565Z,36.01
2023-10-25T08:58:22.856Z,36.02
2023-10-25T08:59:25.341Z,35.88
2023-10-25T09:00:43.713Z,36.05
2023-10-25T09:01:52.440Z,35.91
2023-10-25T09:02:58.374Z,35.93
2023-10-25T09:04:10.362Z,35.52
2023-10-25T09:05:12.759Z,35.77
2023-10-25T09:06:25.192Z,35.92
2023-10-25T09:07:32.592Z,35.93
2023-10-25T09:08:36.138Z,35.63
2023-10-25T09:09:41.994Z,35.75
2023-10-25T09:10:44.439Z,36.08
2023-10-25T09:11:47.629Z,35.97
2023-10-25T09:12:52.185Z,35.76
2023-10-25T09:13:59.040Z,35.86
2023-10-25T09:15:01.333Z,35.82
2023-10-25T09:16:09.099Z,35.78
2023-10-25T09:17:11.509Z,35.69
2023-10-25T09:18:14.092Z,35.87
2023-10-25T09:19:22.272Z,35.79
2023-10-25T09:20:28.801Z,35.87
2023-10-25T09:21:31.622Z,35.87
2023-10-25T09:22:34.056Z,35.87
2023-10-25T09:23:36.510Z,35.73
2023-10-25T09:24:53.037Z,35.53
2023-10-25T09:25:56.484Z,35.74
2023-10-25T09:27:07.561Z,35.76
2023-10-25T09:28:17.246Z,35.46
2023-10-25T09:29:29.105Z,36.46
2023-10-25T09:30:34.493Z,36.17
2023-10-25T09:31:38.698Z,35.89
2023-10-25T09:32:42.330Z,36.12
2023-10-25T09:33:44.993Z,35.61
2023-10-25T09:34:47.987Z,35.85
2023-10-25T09:35:52.148Z,35.82
2023-10-25T09:36:54.680Z,35.69
2023-10-25T09:37:57.025Z,35.94
2023-10-25T09:38:59.652Z,35.63
2023-10-25T09:40:02.034Z,35.64
2023-10-25T09:41:05.927Z,36.20
2023-10-25T09:42:14.507Z,36.13
2023-10-25T09:43:21.293Z,35.81
2023-10-25T09:44:29.828Z,36.08
2023-10-25T09:45:33.302Z,35.76
2023-10-25T09:46:36.031Z,35.97
2023-10-25T09:47:45.516Z,35.62
2023-10-25T09:49:08.507Z,35.61
2023-10-25T09:50:27.359Z,35.46
2023-10-25T09:52:00.596Z,35.64
2023-10-25T09:53:32.362Z,35.60
2023-10-25T09:54:35.508Z,35.57
2023-10-25T09:55:45.480Z,35.56
2023-10-25T09:56:50.758Z,35.69
2023-10-25T09:57:55.270Z,35.56
2023-10-25T09:58:59.170Z,35.75
2023-10-25T10:00:03.085Z,35.74
2023-10-25T10:01:07.117Z,35.56
2023-10-25T10:02:13.987Z,35.73
2023-10-25T10:03:33.492Z,35.67
2023-10-25T10:04:51.246Z,35.57
2023-10-25T10:06:06.979Z,35.69
2023-10-25T10:07:32.801Z,35.36
2023-10-25T10:08:55.213Z,35.30
2023-10-25T10:10:13.902Z,35.37
2023-10-25T10:11:26.308Z,35.42
2023-10-25T10:12:28.924Z,35.62
2023-10-25T10:13:31.296Z,35.64
2023-10-25T10:14:38.241Z,35.48
2023-10-25T10:16:03.409Z,35.51
2023-10-25T10:17:10.219Z,35.65
2023-10-25T10:18:13.016Z,35.40
2023-10-25T10:19:15.752Z,35.67
2023-10-25T10:20:30.951Z,35.68
2023-10-25T10:21:53.381Z,35.74
2023-10-25T10:23:07.151Z,35.70
2023-10-25T10:24:48.932Z,35.63
2023-10-25T10:25:53.658Z,35.67
2023-10-25T10:26:55.968Z,35.77
2023-10-25T10:28:05.223Z,35.57
2023-10-25T10:29:33.373Z,35.41
2023-10-25T10:30:38.520Z,35.34
2023-10-25T10:31:58.248Z,35.38
2023-10-25T10:33:03.419Z,35.72
2023-10-25T10:34:06.587Z,35.80
2023-10-25T10:35:25.945Z,35.53
2023-10-25T10:36:31.780Z,35.67
2023-10-25T10:37:34.429Z,35.70
2023-10-25T10:39:15.105Z,35.55
2023-10-25T10:40:17.816Z,35.31
2023-10-25T10:41:29.827Z,35.35
2023-10-25T10:42:32.581Z,35.58
2023-10-25T10:43:35.368Z,35.70
2023-10-25T10:44:39.447Z,35.41
2023-10-25T10:45:49.778Z,35.63
2023-10-25T10:47:02.243Z,35.62
2023-10-25T10:48:21.280Z,35.83
2023-10-25T10:49:28.910Z,35.50
2023-10-25T10:50:31.446Z,35.76
2023-10-25T10:51:33.776Z,35.50
2023-10-25T10:52:36.124Z,35.47
2023-10-25T10:53:39.888Z,35.50
2023-10-25T10:54:42.480Z,35.50
2023-10-25T10:55:47.256Z,35.70
2023-10-25T10:56:50.000Z,35.70
2023-10-25T10:58:06.819Z,35.76
2023-10-25T10:59:11.305Z,35.53
2023-10-25T11:00:17.771Z,35.48
2023-10-25T11:01:20.564Z,35.48
2023-10-25T11:02:23.159Z,35.42
2023-10-25T11:03:29.252Z,35.75
2023-10-25T11:04:31.728Z,35.66
2023-10-25T11:05:34.111Z,35.67
2023-10-25T11:06:36.908Z,35.64
2023-10-25T11:07:39.471Z,35.61
2023-10-25T11:08:43.303Z,35.63
2023-10-25T11:09:46.525Z,35.35
2023-10-25T11:10:49.255Z,35.42
2023-10-25T11:11:52.240Z,35.55
2023-10-25T11:12:59.792Z,35.66
2023-10-25T11:14:02.582Z,35.61
2023-10-25T11:15:08.386Z,35.38
2023-10-25T11:16:11.486Z,35.44
2023-10-25T11:17:14.427Z,35.45
2023-10-25T11:18:17.104Z,35.42
2023-10-25T11:19:19.662Z,35.70
2023-10-25T11:20:22.052Z,35.37
2023-10-25T11:21:24.700Z,35.46
2023-10-25T11:22:27.394Z,35.44
2023-10-25T11:23:30.227Z,35.57
2023-10-25T11:24:36.808Z,35.34
2023-10-25T11:25:39.576Z,35.33
2023-10-25T11:26:43.242Z,35.33
2023-10-25T11:27:46.147Z,35.48
2023-10-25T11:28:48.499Z,35.51
2023-10-25T11:29:51.859Z,35.64
2023-10-25T11:31:01.580Z,35.07
2023-10-25T11:32:07.354Z,35.68
2023-10-25T11:33:11.001Z,35.43
2023-10-25T11:34:13.490Z,35.51
2023-10-25T11:35:43.127Z,35.26
2023-10-25T11:36:45.592Z,35.20
2023-10-25T11:37:48.081Z,35.14
2023-10-25T11:38:50.711Z,35.14
2023-10-25T11:40:03.502Z,35.14
2023-10-25T11:41:05.967Z,35.37
2023-10-25T11:42:08.303Z,35.39
2023-10-25T11:43:11.786Z,35.22
2023-10-25T11:44:14.465Z,35.38
2023-10-25T11:45:19.178Z,35.38
2023-10-25T11:46:21.946Z,35.25
2023-10-25T11:47:24.739Z,35.14
2023-10-25T11:48:27.183Z,35.33
2023-10-25T11:49:29.634Z,35.43
2023-10-25T11:50:32.392Z,35.49
2023-10-25T11:51:36.350Z,35.25
2023-10-25T11:52:38.780Z,35.09
2023-10-25T11:53:41.463Z,35.12
2023-10-25T11:54:43.870Z,35.45
2023-10-25T11:55:46.386Z,35.41
2023-10-25T11:56:49.700Z,35.01
2023-10-25T11:57:52.171Z,35.11
2023-10-25T11:58:54.773Z,35.26
2023-10-25T11:59:57.729Z,35.19
2023-10-25T12:01:09.244Z,35.15
2023-10-25T12:02:13.276Z,35.26
2023-10-25T12:03:16.006Z,35.27
2023-10-25T12:04:18.679Z,35.00
2023-10-25T12:05:21.466Z,35.20
2023-10-25T12:06:25.326Z,35.07
2023-10-25T12:07:28.572Z,35.06
2023-10-25T12:08:31.146Z,35.22
2023-10-25T12:09:33.867Z,34.99
2023-10-25T12:10:36.149Z,34.98
2023-10-25T12:11:40.583Z,35.22
2023-10-25T12:12:45.119Z,34.95
2023-10-25T12:13:47.702Z,34.97
2023-10-25T12:14:51.378Z,35.25
2023-10-25T12:15:53.909Z,34.94
2023-10-25T12:16:56.355Z,34.94
2023-10-25T12:17:58.753Z,34.85
2023-10-25T12:19:01.171Z,34.98
2023-10-25T12:20:18.292Z,34.85
2023-10-25T12:21:25.537Z,34.82
2023-10-25T12:22:28.177Z,35.05
2023-10-25T12:23:30.965Z,35.04
2023-10-25T12:24:34.224Z,34.80
2023-10-25T12:25:38.925Z,34.80
2023-10-25T12:26:41.952Z,35.03
2023-10-25T12:27:46.143Z,35.07
2023-10-25T12:28:48.736Z,34.84
2023-10-25T12:29:51.470Z,35.04
2023-10-25T12:30:55.675Z,34.91
2023-10-25T12:31:59.209Z,35.23
2023-10-25T12:33:01.824Z,35.28
2023-10-25T12:34:04.349Z,34.94
2023-10-25T12:35:07.516Z,35.11
2023-10-25T12:36:09.899Z,34.67
2023-10-25T12:37:12.590Z,34.91
2023-10-25T12:38:14.955Z,34.82
2023-10-25T12:39:18.599Z,34.97
2023-10-25T12:40:21.391Z,34.96
2023-10-25T12:41:24.129Z,34.84
2023-10-25T12:42:26.448Z,34.98
2023-10-25T12:43:29.121Z,34.79
2023-10-25T12:44:31.556Z,34.71
2023-10-25T12:45:34.115Z,35.09
2023-10-25T12:46:38.468Z,34.72
2023-10-25T12:47:41.092Z,35.02
2023-10-25T12:48:43.925Z,35.00
2023-10-25T12:49:47.183Z,34.97
2023-10-25T12:50:49.481Z,34.77
2023-10-25T12:51:51.763Z,35.01
2023-10-25T12:52:54.192Z,34.74
2023-10-25T12:53:56.724Z,34.77
2023-10-25T12:54:59.155Z,34.85
2023-10-25T12:56:01.600Z,34.97
2023-10-25T12:57:04.109Z,34.65
2023-10-25T12:58:07.504Z,34.95
2023-10-25T12:59:10.039Z,34.92
2023-10-25T13:00:13.488Z,34.76
2023-10-25T13:01:15.917Z,34.67
2023-10-25T13:02:19.222Z,34.65
2023-10-25T13:03:22.322Z,34.77
2023-10-25T13:04:25.194Z,34.92
2023-10-25T13:05:27.681Z,35.00
2023-10-25T13:06:32.796Z,34.72
2023-10-25T13:07:35.672Z,34.90
2023-10-25T13:08:38.379Z,34.72
2023-10-25T13:09:41.137Z,35.00
2023-10-25T13:10:43.770Z,34.69
2023-10-25T13:11:46.298Z,34.81
2023-10-25T13:12:49.035Z,34.40
2023-10-25T13:13:51.544Z,34.59
2023-10-25T13:14:54.286Z,34.60
2023-10-25T13:15:56.974Z,34.96
2023-10-25T13:17:08.721Z,34.85
2023-10-25T13:18:19.615Z,34.93
2023-10-25T13:19:21.974Z,34.62
2023-10-25T13:20:24.757Z,34.59
2023-10-25T13:21:27.498Z,34.80
2023-10-25T13:22:30.805Z,34.96
2023-10-25T13:23:33.206Z,34.39
2023-10-25T13:24:35.529Z,34.60
2023-10-25T13:25:38.185Z,34.84
2023-10-25T13:26:40.743Z,34.99
2023-10-25T13:27:43.322Z,34.57
2023-10-25T13:28:45.705Z,34.73
2023-10-25T13:29:49.494Z,34.81
2023-10-25T13:30:51.822Z,34.62
2023-10-25T13:31:54.184Z,34.82
2023-10-25T13:32:56.773Z,34.83
2023-10-25T13:33:59.084Z,34.62
2023-10-25T13:35:01.582Z,34.90
2023-10-25T13:36:04.521Z,34.56
2023-10-25T13:37:07.669Z,34.63
2023-10-25T13:38:10.285Z,34.59
2023-10-25T13:39:12.879Z,34.43
2023-10-25T13:40:15.291Z,34.59
2023-10-25T13:41:20.904Z,34.61
2023-10-25T13:42:24.178Z,34.72
2023-10-25T13:43:26.562Z,34.79
2023-10-25T13:44:29.374Z,34.39
2023-10-25T13:45:32.044Z,34.44
2023-10-25T13:46:34.509Z,34.63
2023-10-25T13:47:37.156Z,34.71